sensor_id;sensor_type;location;lat;lon;timestamp;P1;durP1;ratioP1;P2;durP2;ratioP2
40162;SDS011;25881;47.462;19.304;2023-04-15T00:00:29;4.43;;;3.25;;
40162;SDS011;25881;47.462;19.304;2023-04-15T00:02:54;4.68;;;3.22;;
40162;SDS011;25881;47.462;19.304;2023-04-15T00:05:20;6.23;;;3.37;;
40162;SDS011;25881;47.462;19.304;2023-04-15T00:07:45;5.22;;;3.60;;
40162;SDS011;25881;47.462;19.304;2023-04-15T00:10:11;5.75;;;4.13;;
40162;SDS011;25881;47.462;19.304;2023-04-15T00:12:36;7.10;;;4.53;;
40162;SDS011;25881;47.462;19.304;2023-04-15T00:15:01;9.90;;;4.70;;
40162;SDS011;25881;47.462;19.304;2023-04-15T00:17:27;7.53;;;4.75;;
40162;SDS011;25881;47.462;19.304;2023-04-15T00:19:52;8.30;;;5.47;;
40162;SDS011;25881;47.462;19.304;2023-04-15T00:22:18;10.25;;;5.80;;
40162;SDS011;25881;47.462;19.304;2023-04-15T00:24:43;8.38;;;5.30;;
40162;SDS011;25881;47.462;19.304;2023-04-15T00:27:09;9.87;;;6.17;;
40162;SDS011;25881;47.462;19.304;2023-04-15T00:29:34;12.88;;;6.45;;
40162;SDS011;25881;47.462;19.304;2023-04-15T00:31:59;12.00;;;6.72;;
40162;SDS011;25881;47.462;19.304;2023-04-15T00:34:25;16.25;;;9.88;;
40162;SDS011;25881;47.462;19.304;2023-04-15T00:36:51;9.80;;;5.90;;
40162;SDS011;25881;47.462;19.304;2023-04-15T00:39:17;9.63;;;6.10;;
40162;SDS011;25881;47.462;19.304;2023-04-15T00:41:43;8.83;;;5.60;;
40162;SDS011;25881;47.462;19.304;2023-04-15T00:44:08;8.35;;;5.68;;
40162;SDS011;25881;47.462;19.304;2023-04-15T00:46:34;8.23;;;5.53;;
40162;SDS011;25881;47.462;19.304;2023-04-15T00:49:01;7.05;;;5.10;;
40162;SDS011;25881;47.462;19.304;2023-04-15T00:51:27;8.60;;;5.65;;
40162;SDS011;25881;47.462;19.304;2023-04-15T00:53:53;7.57;;;5.53;;
40162;SDS011;25881;47.462;19.304;2023-04-15T00:56:18;9.43;;;6.13;;
40162;SDS011;25881;47.462;19.304;2023-04-15T00:58:45;6.85;;;5.13;;
40162;SDS011;25881;47.462;19.304;2023-04-15T01:01:11;7.90;;;4.93;;
40162;SDS011;25881;47.462;19.304;2023-04-15T01:03:36;6.43;;;4.80;;
40162;SDS011;25881;47.462;19.304;2023-04-15T01:06:01;8.10;;;4.53;;
40162;SDS011;25881;47.462;19.304;2023-04-15T01:08:27;6.10;;;4.65;;
40162;SDS011;25881;47.462;19.304;2023-04-15T01:10:53;7.15;;;4.80;;
40162;SDS011;25881;47.462;19.304;2023-04-15T01:13:19;6.75;;;4.82;;
40162;SDS011;25881;47.462;19.304;2023-04-15T01:15:46;7.03;;;4.95;;
40162;SDS011;25881;47.462;19.304;2023-04-15T01:18:11;5.93;;;4.25;;
40162;SDS011;25881;47.462;19.304;2023-04-15T01:20:37;6.18;;;4.53;;
40162;SDS011;25881;47.462;19.304;2023-04-15T01:23:02;8.98;;;4.47;;
40162;SDS011;25881;47.462;19.304;2023-04-15T01:25:31;5.93;;;3.92;;
40162;SDS011;25881;47.462;19.304;2023-04-15T01:27:57;5.78;;;4.40;;
40162;SDS011;25881;47.462;19.304;2023-04-15T01:30:22;6.83;;;4.67;;
40162;SDS011;25881;47.462;19.304;2023-04-15T01:32:47;9.13;;;5.13;;
40162;SDS011;25881;47.462;19.304;2023-04-15T01:35:13;7.43;;;4.77;;
40162;SDS011;25881;47.462;19.304;2023-04-15T01:37:38;7.07;;;4.65;;
40162;SDS011;25881;47.462;19.304;2023-04-15T01:40:03;6.33;;;4.33;;
40162;SDS011;25881;47.462;19.304;2023-04-15T01:42:30;12.70;;;5.32;;
40162;SDS011;25881;47.462;19.304;2023-04-15T01:44:55;9.70;;;6.07;;
40162;SDS011;25881;47.462;19.304;2023-04-15T01:47:21;8.60;;;5.97;;
40162;SDS011;25881;47.462;19.304;2023-04-15T01:49:46;7.57;;;6.25;;
40162;SDS011;25881;47.462;19.304;2023-04-15T01:52:11;9.47;;;6.73;;
40162;SDS011;25881;47.462;19.304;2023-04-15T01:54:37;8.18;;;6.70;;
40162;SDS011;25881;47.462;19.304;2023-04-15T01:57:02;12.57;;;7.37;;
40162;SDS011;25881;47.462;19.304;2023-04-15T01:59:27;9.98;;;7.53;;
40162;SDS011;25881;47.462;19.304;2023-04-15T02:01:53;10.00;;;7.20;;
40162;SDS011;25881;47.462;19.304;2023-04-15T02:04:18;10.20;;;7.63;;
40162;SDS011;25881;47.462;19.304;2023-04-15T02:06:43;11.30;;;8.07;;
40162;SDS011;25881;47.462;19.304;2023-04-15T02:09:09;10.20;;;7.33;;
40162;SDS011;25881;47.462;19.304;2023-04-15T02:11:34;10.95;;;8.07;;
40162;SDS011;25881;47.462;19.304;2023-04-15T02:14:01;8.90;;;7.03;;
40162;SDS011;25881;47.462;19.304;2023-04-15T02:16:26;9.07;;;6.78;;
40162;SDS011;25881;47.462;19.304;2023-04-15T02:18:51;8.27;;;6.23;;
40162;SDS011;25881;47.462;19.304;2023-04-15T02:21:16;9.47;;;6.97;;
40162;SDS011;25881;47.462;19.304;2023-04-15T02:23:43;11.52;;;6.80;;
40162;SDS011;25881;47.462;19.304;2023-04-15T02:26:08;9.32;;;6.65;;
40162;SDS011;25881;47.462;19.304;2023-04-15T02:28:33;10.57;;;6.77;;
40162;SDS011;25881;47.462;19.304;2023-04-15T02:30:59;9.85;;;7.45;;
40162;SDS011;25881;47.462;19.304;2023-04-15T02:33:25;10.13;;;7.57;;
40162;SDS011;25881;47.462;19.304;2023-04-15T02:35:50;10.97;;;8.30;;
40162;SDS011;25881;47.462;19.304;2023-04-15T02:38:17;11.63;;;8.93;;
40162;SDS011;25881;47.462;19.304;2023-04-15T02:40:42;13.52;;;10.35;;
40162;SDS011;25881;47.462;19.304;2023-04-15T02:43:07;14.07;;;9.80;;
40162;SDS011;25881;47.462;19.304;2023-04-15T02:45:32;12.77;;;9.97;;
40162;SDS011;25881;47.462;19.304;2023-04-15T02:47:58;12.13;;;9.17;;
40162;SDS011;25881;47.462;19.304;2023-04-15T02:50:23;12.60;;;9.15;;
40162;SDS011;25881;47.462;19.304;2023-04-15T02:52:49;14.00;;;10.63;;
40162;SDS011;25881;47.462;19.304;2023-04-15T02:55:15;19.67;;;13.32;;
40162;SDS011;25881;47.462;19.304;2023-04-15T02:57:42;22.80;;;13.95;;
40162;SDS011;25881;47.462;19.304;2023-04-15T03:00:07;22.63;;;14.70;;
40162;SDS011;25881;47.462;19.304;2023-04-15T03:02:34;17.08;;;11.38;;
40162;SDS011;25881;47.462;19.304;2023-04-15T03:05:00;19.92;;;12.65;;
40162;SDS011;25881;47.462;19.304;2023-04-15T03:07:25;20.15;;;11.40;;
40162;SDS011;25881;47.462;19.304;2023-04-15T03:09:50;14.07;;;10.68;;
40162;SDS011;25881;47.462;19.304;2023-04-15T03:12:16;17.17;;;11.48;;
40162;SDS011;25881;47.462;19.304;2023-04-15T03:14:41;15.55;;;11.80;;
40162;SDS011;25881;47.462;19.304;2023-04-15T03:17:07;14.68;;;11.18;;
40162;SDS011;25881;47.462;19.304;2023-04-15T03:19:32;14.20;;;10.90;;
40162;SDS011;25881;47.462;19.304;2023-04-15T03:21:57;13.93;;;10.90;;
40162;SDS011;25881;47.462;19.304;2023-04-15T03:24:22;15.45;;;11.93;;
40162;SDS011;25881;47.462;19.304;2023-04-15T03:26:48;17.70;;;11.88;;
40162;SDS011;25881;47.462;19.304;2023-04-15T03:29:14;15.00;;;10.98;;
40162;SDS011;25881;47.462;19.304;2023-04-15T03:31:39;16.50;;;13.10;;
40162;SDS011;25881;47.462;19.304;2023-04-15T03:34:04;18.67;;;13.10;;
40162;SDS011;25881;47.462;19.304;2023-04-15T03:36:29;19.80;;;14.27;;
40162;SDS011;25881;47.462;19.304;2023-04-15T03:38:56;22.35;;;14.77;;
40162;SDS011;25881;47.462;19.304;2023-04-15T03:41:22;20.52;;;13.57;;
40162;SDS011;25881;47.462;19.304;2023-04-15T03:43:47;22.42;;;14.15;;
40162;SDS011;25881;47.462;19.304;2023-04-15T03:46:13;16.90;;;12.47;;
40162;SDS011;25881;47.462;19.304;2023-04-15T03:48:38;14.80;;;11.60;;
40162;SDS011;25881;47.462;19.304;2023-04-15T03:51:03;19.57;;;12.80;;
40162;SDS011;25881;47.462;19.304;2023-04-15T03:53:28;14.50;;;10.35;;
40162;SDS011;25881;47.462;19.304;2023-04-15T03:55:54;16.63;;;12.43;;
40162;SDS011;25881;47.462;19.304;2023-04-15T03:58:19;17.95;;;11.02;;
40162;SDS011;25881;47.462;19.304;2023-04-15T04:00:45;15.05;;;11.15;;
40162;SDS011;25881;47.462;19.304;2023-04-15T04:03:10;18.15;;;13.00;;
40162;SDS011;25881;47.462;19.304;2023-04-15T04:05:36;19.67;;;14.35;;
40162;SDS011;25881;47.462;19.304;2023-04-15T04:08:03;18.67;;;12.60;;
40162;SDS011;25881;47.462;19.304;2023-04-15T04:10:28;19.75;;;13.50;;
40162;SDS011;25881;47.462;19.304;2023-04-15T04:12:53;21.90;;;14.82;;
40162;SDS011;25881;47.462;19.304;2023-04-15T04:15:18;20.60;;;14.60;;
40162;SDS011;25881;47.462;19.304;2023-04-15T04:17:44;18.27;;;12.70;;
40162;SDS011;25881;47.462;19.304;2023-04-15T04:20:09;21.10;;;13.23;;
40162;SDS011;25881;47.462;19.304;2023-04-15T04:22:38;17.33;;;11.75;;
40162;SDS011;25881;47.462;19.304;2023-04-15T04:25:04;17.45;;;12.20;;
40162;SDS011;25881;47.462;19.304;2023-04-15T04:27:30;17.70;;;11.80;;
40162;SDS011;25881;47.462;19.304;2023-04-15T04:29:55;19.50;;;11.27;;
40162;SDS011;25881;47.462;19.304;2023-04-15T04:32:20;15.43;;;11.77;;
40162;SDS011;25881;47.462;19.304;2023-04-15T04:34:45;15.90;;;10.77;;
40162;SDS011;25881;47.462;19.304;2023-04-15T04:37:12;15.02;;;11.25;;
40162;SDS011;25881;47.462;19.304;2023-04-15T04:39:37;15.67;;;10.80;;
40162;SDS011;25881;47.462;19.304;2023-04-15T04:42:02;16.48;;;11.98;;
40162;SDS011;25881;47.462;19.304;2023-04-15T04:44:27;16.10;;;12.32;;
40162;SDS011;25881;47.462;19.304;2023-04-15T04:46:53;16.20;;;11.80;;
40162;SDS011;25881;47.462;19.304;2023-04-15T04:49:18;17.37;;;12.20;;
40162;SDS011;25881;47.462;19.304;2023-04-15T04:51:43;16.13;;;11.00;;
40162;SDS011;25881;47.462;19.304;2023-04-15T04:54:09;14.50;;;11.18;;
40162;SDS011;25881;47.462;19.304;2023-04-15T04:56:34;16.27;;;12.05;;
40162;SDS011;25881;47.462;19.304;2023-04-15T04:58:59;19.23;;;12.57;;
40162;SDS011;25881;47.462;19.304;2023-04-15T05:01:25;16.33;;;11.82;;
40162;SDS011;25881;47.462;19.304;2023-04-15T05:03:53;17.05;;;12.18;;
40162;SDS011;25881;47.462;19.304;2023-04-15T05:06:18;17.07;;;11.07;;
40162;SDS011;25881;47.462;19.304;2023-04-15T05:08:44;17.23;;;12.07;;
40162;SDS011;25881;47.462;19.304;2023-04-15T05:11:11;17.40;;;12.45;;
40162;SDS011;25881;47.462;19.304;2023-04-15T05:13:37;15.65;;;12.60;;
40162;SDS011;25881;47.462;19.304;2023-04-15T05:16:03;21.77;;;16.40;;
40162;SDS011;25881;47.462;19.304;2023-04-15T05:18:28;19.48;;;15.38;;
40162;SDS011;25881;47.462;19.304;2023-04-15T05:20:54;17.42;;;13.70;;
40162;SDS011;25881;47.462;19.304;2023-04-15T05:23:19;19.47;;;13.43;;
40162;SDS011;25881;47.462;19.304;2023-04-15T05:25:44;21.80;;;14.90;;
40162;SDS011;25881;47.462;19.304;2023-04-15T05:28:10;23.13;;;15.25;;
40162;SDS011;25881;47.462;19.304;2023-04-15T05:30:35;19.60;;;14.88;;
40162;SDS011;25881;47.462;19.304;2023-04-15T05:33:00;18.90;;;13.67;;
40162;SDS011;25881;47.462;19.304;2023-04-15T05:35:25;20.95;;;13.35;;
40162;SDS011;25881;47.462;19.304;2023-04-15T05:37:51;19.13;;;13.30;;
40162;SDS011;25881;47.462;19.304;2023-04-15T05:40:16;15.80;;;12.50;;
40162;SDS011;25881;47.462;19.304;2023-04-15T05:42:41;17.47;;;12.90;;
40162;SDS011;25881;47.462;19.304;2023-04-15T05:45:07;15.27;;;11.93;;
40162;SDS011;25881;47.462;19.304;2023-04-15T05:47:34;17.40;;;12.75;;
40162;SDS011;25881;47.462;19.304;2023-04-15T05:49:59;14.52;;;11.52;;
40162;SDS011;25881;47.462;19.304;2023-04-15T05:52:24;15.82;;;11.50;;
40162;SDS011;25881;47.462;19.304;2023-04-15T05:54:50;14.52;;;11.98;;
40162;SDS011;25881;47.462;19.304;2023-04-15T05:57:15;15.77;;;11.27;;
40162;SDS011;25881;47.462;19.304;2023-04-15T05:59:40;15.53;;;11.70;;
40162;SDS011;25881;47.462;19.304;2023-04-15T06:02:06;14.98;;;11.95;;
40162;SDS011;25881;47.462;19.304;2023-04-15T06:04:32;16.10;;;12.75;;
40162;SDS011;25881;47.462;19.304;2023-04-15T06:06:57;18.38;;;13.38;;
40162;SDS011;25881;47.462;19.304;2023-04-15T06:09:22;16.40;;;12.60;;
40162;SDS011;25881;47.462;19.304;2023-04-15T06:11:48;18.60;;;13.33;;
40162;SDS011;25881;47.462;19.304;2023-04-15T06:14:13;19.83;;;13.50;;
40162;SDS011;25881;47.462;19.304;2023-04-15T06:16:38;19.20;;;13.40;;
40162;SDS011;25881;47.462;19.304;2023-04-15T06:19:03;14.73;;;11.67;;
40162;SDS011;25881;47.462;19.304;2023-04-15T06:21:29;15.43;;;12.52;;
40162;SDS011;25881;47.462;19.304;2023-04-15T06:23:55;15.40;;;12.52;;
40162;SDS011;25881;47.462;19.304;2023-04-15T06:26:20;14.38;;;11.27;;
40162;SDS011;25881;47.462;19.304;2023-04-15T06:28:46;14.93;;;11.57;;
40162;SDS011;25881;47.462;19.304;2023-04-15T06:31:11;13.82;;;10.70;;
40162;SDS011;25881;47.462;19.304;2023-04-15T06:33:36;14.73;;;11.43;;
40162;SDS011;25881;47.462;19.304;2023-04-15T06:36:01;12.85;;;10.60;;
40162;SDS011;25881;47.462;19.304;2023-04-15T06:38:27;14.67;;;10.30;;
40162;SDS011;25881;47.462;19.304;2023-04-15T06:40:52;14.63;;;9.67;;
40162;SDS011;25881;47.462;19.304;2023-04-15T06:43:17;12.15;;;9.57;;
40162;SDS011;25881;47.462;19.304;2023-04-15T06:45:42;12.50;;;9.43;;
40162;SDS011;25881;47.462;19.304;2023-04-15T06:48:08;11.85;;;9.65;;
40162;SDS011;25881;47.462;19.304;2023-04-15T06:50:33;11.23;;;9.10;;
40162;SDS011;25881;47.462;19.304;2023-04-15T06:52:59;13.45;;;9.75;;
40162;SDS011;25881;47.462;19.304;2023-04-15T06:55:25;12.73;;;9.13;;
40162;SDS011;25881;47.462;19.304;2023-04-15T06:57:50;9.50;;;7.68;;
40162;SDS011;25881;47.462;19.304;2023-04-15T07:00:15;10.27;;;7.93;;
40162;SDS011;25881;47.462;19.304;2023-04-15T07:02:41;9.38;;;7.78;;
40162;SDS011;25881;47.462;19.304;2023-04-15T07:05:06;9.93;;;7.50;;
40162;SDS011;25881;47.462;19.304;2023-04-15T07:07:32;8.82;;;7.03;;
40162;SDS011;25881;47.462;19.304;2023-04-15T07:09:57;9.13;;;6.70;;
40162;SDS011;25881;47.462;19.304;2023-04-15T07:12:22;9.50;;;6.93;;
40162;SDS011;25881;47.462;19.304;2023-04-15T07:14:48;11.20;;;7.82;;
40162;SDS011;25881;47.462;19.304;2023-04-15T07:17:13;11.10;;;7.37;;
40162;SDS011;25881;47.462;19.304;2023-04-15T07:19:39;9.30;;;6.88;;
40162;SDS011;25881;47.462;19.304;2023-04-15T07:22:04;9.18;;;6.63;;
40162;SDS011;25881;47.462;19.304;2023-04-15T07:24:29;10.80;;;7.23;;
40162;SDS011;25881;47.462;19.304;2023-04-15T07:26:55;11.32;;;8.27;;
40162;SDS011;25881;47.462;19.304;2023-04-15T07:29:22;8.20;;;5.65;;
40162;SDS011;25881;47.462;19.304;2023-04-15T07:31:47;6.00;;;5.17;;
40162;SDS011;25881;47.462;19.304;2023-04-15T07:34:12;6.68;;;5.10;;
40162;SDS011;25881;47.462;19.304;2023-04-15T07:36:38;5.97;;;4.63;;
40162;SDS011;25881;47.462;19.304;2023-04-15T07:39:04;6.15;;;4.80;;
40162;SDS011;25881;47.462;19.304;2023-04-15T07:41:29;5.25;;;4.30;;
40162;SDS011;25881;47.462;19.304;2023-04-15T07:43:55;6.07;;;4.63;;
40162;SDS011;25881;47.462;19.304;2023-04-15T07:46:20;6.97;;;3.87;;
40162;SDS011;25881;47.462;19.304;2023-04-15T07:48:48;6.53;;;5.28;;
40162;SDS011;25881;47.462;19.304;2023-04-15T07:51:13;5.07;;;3.27;;
40162;SDS011;25881;47.462;19.304;2023-04-15T07:53:38;15.18;;;12.85;;
40162;SDS011;25881;47.462;19.304;2023-04-15T07:56:04;10.40;;;8.35;;
40162;SDS011;25881;47.462;19.304;2023-04-15T07:58:29;5.93;;;4.00;;
40162;SDS011;25881;47.462;19.304;2023-04-15T08:00:55;6.18;;;3.05;;
40162;SDS011;25881;47.462;19.304;2023-04-15T08:03:20;9.82;;;3.42;;
40162;SDS011;25881;47.462;19.304;2023-04-15T08:05:46;3.47;;;2.83;;
40162;SDS011;25881;47.462;19.304;2023-04-15T08:08:11;4.85;;;3.28;;
40162;SDS011;25881;47.462;19.304;2023-04-15T08:10:37;4.38;;;3.15;;
40162;SDS011;25881;47.462;19.304;2023-04-15T08:13:02;3.60;;;2.40;;
40162;SDS011;25881;47.462;19.304;2023-04-15T08:15:28;4.05;;;2.10;;
40162;SDS011;25881;47.462;19.304;2023-04-15T08:17:53;5.30;;;2.60;;
40162;SDS011;25881;47.462;19.304;2023-04-15T08:20:18;3.80;;;2.50;;
40162;SDS011;25881;47.462;19.304;2023-04-15T08:22:43;2.57;;;1.93;;
40162;SDS011;25881;47.462;19.304;2023-04-15T08:25:09;3.53;;;2.53;;
40162;SDS011;25881;47.462;19.304;2023-04-15T08:27:34;3.67;;;2.38;;
40162;SDS011;25881;47.462;19.304;2023-04-15T08:30:00;4.03;;;2.60;;
40162;SDS011;25881;47.462;19.304;2023-04-15T08:32:25;3.05;;;2.33;;
40162;SDS011;25881;47.462;19.304;2023-04-15T08:34:51;5.75;;;2.75;;
40162;SDS011;25881;47.462;19.304;2023-04-15T08:37:17;3.65;;;2.83;;
40162;SDS011;25881;47.462;19.304;2023-04-15T08:39:42;3.67;;;2.60;;
40162;SDS011;25881;47.462;19.304;2023-04-15T08:42:15;3.70;;;2.60;;
40162;SDS011;25881;47.462;19.304;2023-04-15T08:44:41;3.15;;;2.30;;
40162;SDS011;25881;47.462;19.304;2023-04-15T08:47:08;4.47;;;2.70;;
40162;SDS011;25881;47.462;19.304;2023-04-15T08:52:02;2.80;;;2.15;;
40162;SDS011;25881;47.462;19.304;2023-04-15T08:54:28;3.53;;;2.00;;
40162;SDS011;25881;47.462;19.304;2023-04-15T08:56:54;3.13;;;2.20;;
40162;SDS011;25881;47.462;19.304;2023-04-15T08:59:21;2.20;;;1.80;;
40162;SDS011;25881;47.462;19.304;2023-04-15T09:01:48;1.95;;;1.65;;
40162;SDS011;25881;47.462;19.304;2023-04-15T09:04:14;3.15;;;2.00;;
40162;SDS011;25881;47.462;19.304;2023-04-15T09:06:40;3.90;;;2.08;;
40162;SDS011;25881;47.462;19.304;2023-04-15T09:09:06;2.80;;;1.80;;
40162;SDS011;25881;47.462;19.304;2023-04-15T09:11:31;2.40;;;1.55;;
40162;SDS011;25881;47.462;19.304;2023-04-15T09:13:57;2.90;;;2.00;;
40162;SDS011;25881;47.462;19.304;2023-04-15T09:16:22;2.23;;;1.70;;
40162;SDS011;25881;47.462;19.304;2023-04-15T09:18:48;3.50;;;1.80;;
40162;SDS011;25881;47.462;19.304;2023-04-15T09:21:14;2.28;;;1.70;;
40162;SDS011;25881;47.462;19.304;2023-04-15T09:23:40;4.43;;;1.38;;
40162;SDS011;25881;47.462;19.304;2023-04-15T09:26:06;2.47;;;1.58;;
40162;SDS011;25881;47.462;19.304;2023-04-15T09:28:31;2.15;;;1.45;;
40162;SDS011;25881;47.462;19.304;2023-04-15T09:30:57;2.53;;;1.85;;
40162;SDS011;25881;47.462;19.304;2023-04-15T09:33:23;2.10;;;1.50;;
40162;SDS011;25881;47.462;19.304;2023-04-15T09:36:02;3.13;;;1.70;;
40162;SDS011;25881;47.462;19.304;2023-04-15T09:38:28;2.28;;;1.42;;
40162;SDS011;25881;47.462;19.304;2023-04-15T09:40:54;1.67;;;1.27;;
40162;SDS011;25881;47.462;19.304;2023-04-15T09:43:19;2.85;;;1.83;;
40162;SDS011;25881;47.462;19.304;2023-04-15T09:45:46;1.52;;;1.17;;
40162;SDS011;25881;47.462;19.304;2023-04-15T09:48:24;1.77;;;1.20;;
40162;SDS011;25881;47.462;19.304;2023-04-15T09:50:53;3.60;;;1.85;;
40162;SDS011;25881;47.462;19.304;2023-04-15T09:53:22;3.53;;;1.73;;
40162;SDS011;25881;47.462;19.304;2023-04-15T09:55:55;1.85;;;1.40;;
40162;SDS011;25881;47.462;19.304;2023-04-15T09:58:20;2.58;;;2.03;;
40162;SDS011;25881;47.462;19.304;2023-04-15T10:00:46;3.90;;;1.40;;
40162;SDS011;25881;47.462;19.304;2023-04-15T10:03:13;2.55;;;1.52;;
40162;SDS011;25881;47.462;19.304;2023-04-15T10:05:39;2.55;;;1.58;;
40162;SDS011;25881;47.462;19.304;2023-04-15T10:08:05;1.42;;;1.25;;
40162;SDS011;25881;47.462;19.304;2023-04-15T10:10:30;2.65;;;2.03;;
40162;SDS011;25881;47.462;19.304;2023-04-15T10:12:57;3.50;;;1.50;;
40162;SDS011;25881;47.462;19.304;2023-04-15T10:15:22;2.75;;;1.70;;
40162;SDS011;25881;47.462;19.304;2023-04-15T10:17:48;1.55;;;1.30;;
40162;SDS011;25881;47.462;19.304;2023-04-15T10:20:16;1.75;;;1.30;;
40162;SDS011;25881;47.462;19.304;2023-04-15T10:22:41;1.42;;;1.08;;
40162;SDS011;25881;47.462;19.304;2023-04-15T10:25:09;1.90;;;1.30;;
40162;SDS011;25881;47.462;19.304;2023-04-15T10:27:34;3.55;;;1.20;;
40162;SDS011;25881;47.462;19.304;2023-04-15T10:30:00;2.40;;;1.40;;
40162;SDS011;25881;47.462;19.304;2023-04-15T10:32:27;1.40;;;1.03;;
40162;SDS011;25881;47.462;19.304;2023-04-15T10:34:53;1.40;;;1.00;;
40162;SDS011;25881;47.462;19.304;2023-04-15T10:37:32;1.70;;;0.95;;
40162;SDS011;25881;47.462;19.304;2023-04-15T10:39:58;2.15;;;0.98;;
40162;SDS011;25881;47.462;19.304;2023-04-15T10:42:23;3.00;;;1.50;;
40162;SDS011;25881;47.462;19.304;2023-04-15T10:44:49;3.88;;;2.50;;
40162;SDS011;25881;47.462;19.304;2023-04-15T10:47:18;3.53;;;2.35;;
40162;SDS011;25881;47.462;19.304;2023-04-15T10:49:51;4.25;;;2.67;;
40162;SDS011;25881;47.462;19.304;2023-04-15T10:52:17;4.68;;;3.40;;
40162;SDS011;25881;47.462;19.304;2023-04-15T10:54:46;4.10;;;2.70;;
40162;SDS011;25881;47.462;19.304;2023-04-15T10:57:15;4.55;;;2.65;;
40162;SDS011;25881;47.462;19.304;2023-04-15T11:02:18;6.13;;;1.87;;
40162;SDS011;25881;47.462;19.304;2023-04-15T11:04:56;2.67;;;1.33;;
40162;SDS011;25881;47.462;19.304;2023-04-15T11:09:59;5.73;;;4.70;;
40162;SDS011;25881;47.462;19.304;2023-04-15T11:12:34;8.65;;;5.28;;
40162;SDS011;25881;47.462;19.304;2023-04-15T11:15:23;6.13;;;4.25;;
40162;SDS011;25881;47.462;19.304;2023-04-15T11:17:46;5.05;;;3.70;;
40162;SDS011;25881;47.462;19.304;2023-04-15T11:20:13;6.67;;;4.57;;
40162;SDS011;25881;47.462;19.304;2023-04-15T11:22:45;4.90;;;3.33;;
40162;SDS011;25881;47.462;19.304;2023-04-15T11:25:20;8.82;;;3.53;;
40162;SDS011;25881;47.462;19.304;2023-04-15T11:27:45;5.05;;;3.40;;
40162;SDS011;25881;47.462;19.304;2023-04-15T11:30:18;7.85;;;3.42;;
40162;SDS011;25881;47.462;19.304;2023-04-15T11:32:45;7.13;;;4.50;;
40162;SDS011;25881;47.462;19.304;2023-04-15T11:35:10;7.00;;;4.50;;
40162;SDS011;25881;47.462;19.304;2023-04-15T11:37:35;7.83;;;6.23;;
40162;SDS011;25881;47.462;19.304;2023-04-15T11:40:01;8.80;;;5.83;;
40162;SDS011;25881;47.462;19.304;2023-04-15T11:42:27;7.88;;;5.57;;
40162;SDS011;25881;47.462;19.304;2023-04-15T11:45:05;5.67;;;3.60;;
40162;SDS011;25881;47.462;19.304;2023-04-15T11:47:30;5.63;;;3.92;;
40162;SDS011;25881;47.462;19.304;2023-04-15T11:49:55;5.18;;;3.40;;
40162;SDS011;25881;47.462;19.304;2023-04-15T11:52:21;6.25;;;3.83;;
40162;SDS011;25881;47.462;19.304;2023-04-15T11:54:46;5.47;;;3.72;;
40162;SDS011;25881;47.462;19.304;2023-04-15T11:57:12;5.90;;;3.58;;
40162;SDS011;25881;47.462;19.304;2023-04-15T11:59:41;3.00;;;2.20;;
40162;SDS011;25881;47.462;19.304;2023-04-15T12:02:12;2.38;;;1.70;;
40162;SDS011;25881;47.462;19.304;2023-04-15T12:04:38;1.60;;;1.20;;
40162;SDS011;25881;47.462;19.304;2023-04-15T12:07:03;3.03;;;2.00;;
40162;SDS011;25881;47.462;19.304;2023-04-15T12:09:29;3.88;;;2.15;;
40162;SDS011;25881;47.462;19.304;2023-04-15T12:11:56;4.17;;;2.33;;
40162;SDS011;25881;47.462;19.304;2023-04-15T12:16:48;1.57;;;1.00;;
40162;SDS011;25881;47.462;19.304;2023-04-15T12:19:14;2.47;;;1.50;;
40162;SDS011;25881;47.462;19.304;2023-04-15T12:21:41;1.92;;;1.48;;
40162;SDS011;25881;47.462;19.304;2023-04-15T12:24:08;1.65;;;1.40;;
40162;SDS011;25881;47.462;19.304;2023-04-15T12:29:09;1.58;;;1.13;;
40162;SDS011;25881;47.462;19.304;2023-04-15T12:31:35;1.75;;;1.30;;
40162;SDS011;25881;47.462;19.304;2023-04-15T12:34:06;1.05;;;0.98;;
40162;SDS011;25881;47.462;19.304;2023-04-15T12:36:31;0.90;;;0.88;;
40162;SDS011;25881;47.462;19.304;2023-04-15T12:39:00;0.80;;;0.80;;
40162;SDS011;25881;47.462;19.304;2023-04-15T12:41:26;0.60;;;0.60;;
40162;SDS011;25881;47.462;19.304;2023-04-15T12:43:51;2.10;;;1.55;;
40162;SDS011;25881;47.462;19.304;2023-04-15T12:46:16;0.98;;;0.90;;
40162;SDS011;25881;47.462;19.304;2023-04-15T12:48:42;2.00;;;1.65;;
40162;SDS011;25881;47.462;19.304;2023-04-15T12:51:08;1.52;;;1.13;;
40162;SDS011;25881;47.462;19.304;2023-04-15T12:53:33;1.70;;;0.83;;
40162;SDS011;25881;47.462;19.304;2023-04-15T12:55:58;1.07;;;0.97;;
40162;SDS011;25881;47.462;19.304;2023-04-15T12:58:24;5.50;;;3.13;;
40162;SDS011;25881;47.462;19.304;2023-04-15T13:00:49;3.13;;;2.37;;
40162;SDS011;25881;47.462;19.304;2023-04-15T13:03:14;3.03;;;2.30;;
40162;SDS011;25881;47.462;19.304;2023-04-15T13:05:40;2.08;;;1.60;;
40162;SDS011;25881;47.462;19.304;2023-04-15T13:08:05;1.20;;;0.93;;
40162;SDS011;25881;47.462;19.304;2023-04-15T13:10:31;2.92;;;1.30;;
40162;SDS011;25881;47.462;19.304;2023-04-15T13:12:56;2.55;;;1.90;;
40162;SDS011;25881;47.462;19.304;2023-04-15T13:15:22;6.75;;;2.97;;
40162;SDS011;25881;47.462;19.304;2023-04-15T13:17:47;5.20;;;2.35;;
40162;SDS011;25881;47.462;19.304;2023-04-15T13:20:13;2.70;;;1.23;;
40162;SDS011;25881;47.462;19.304;2023-04-15T13:22:38;1.23;;;0.90;;
40162;SDS011;25881;47.462;19.304;2023-04-15T13:25:04;2.05;;;1.10;;
40162;SDS011;25881;47.462;19.304;2023-04-15T13:27:29;0.82;;;0.82;;
40162;SDS011;25881;47.462;19.304;2023-04-15T13:29:55;0.88;;;0.80;;
40162;SDS011;25881;47.462;19.304;2023-04-15T13:32:21;1.02;;;0.98;;
40162;SDS011;25881;47.462;19.304;2023-04-15T13:34:46;3.00;;;1.30;;
40162;SDS011;25881;47.462;19.304;2023-04-15T13:37:11;2.10;;;1.10;;
40162;SDS011;25881;47.462;19.304;2023-04-15T13:39:37;2.83;;;1.40;;
40162;SDS011;25881;47.462;19.304;2023-04-15T13:42:02;3.00;;;1.40;;
40162;SDS011;25881;47.462;19.304;2023-04-15T13:44:27;3.30;;;1.80;;
40162;SDS011;25881;47.462;19.304;2023-04-15T13:46:52;2.50;;;1.42;;
40162;SDS011;25881;47.462;19.304;2023-04-15T13:49:18;2.80;;;1.10;;
40162;SDS011;25881;47.462;19.304;2023-04-15T13:51:43;3.70;;;2.40;;
40162;SDS011;25881;47.462;19.304;2023-04-15T13:54:08;5.72;;;4.22;;
40162;SDS011;25881;47.462;19.304;2023-04-15T13:56:34;3.22;;;2.15;;
40162;SDS011;25881;47.462;19.304;2023-04-15T13:58:59;2.53;;;1.83;;
40162;SDS011;25881;47.462;19.304;2023-04-15T14:01:26;4.10;;;2.67;;
40162;SDS011;25881;47.462;19.304;2023-04-15T14:03:51;3.67;;;2.50;;
40162;SDS011;25881;47.462;19.304;2023-04-15T14:06:17;5.43;;;2.50;;
40162;SDS011;25881;47.462;19.304;2023-04-15T14:08:42;3.70;;;2.38;;
40162;SDS011;25881;47.462;19.304;2023-04-15T14:11:07;6.38;;;2.25;;
40162;SDS011;25881;47.462;19.304;2023-04-15T14:13:33;6.82;;;4.65;;
40162;SDS011;25881;47.462;19.304;2023-04-15T14:15:58;6.85;;;5.03;;
40162;SDS011;25881;47.462;19.304;2023-04-15T14:18:23;4.20;;;3.00;;
40162;SDS011;25881;47.462;19.304;2023-04-15T14:20:48;4.88;;;2.90;;
40162;SDS011;25881;47.462;19.304;2023-04-15T14:23:14;3.63;;;2.95;;
40162;SDS011;25881;47.462;19.304;2023-04-15T14:25:39;3.93;;;2.53;;
40162;SDS011;25881;47.462;19.304;2023-04-15T14:28:04;2.13;;;1.60;;
40162;SDS011;25881;47.462;19.304;2023-04-15T14:30:30;2.60;;;1.63;;